sensor_id;sensor_type;location;lat;lon;timestamp;pressure;altitude;pressure_sealevel;temperature;humidity
72855;BME280;60991;51.278;22.550;2022-11-20T00:00:07;99065.75;;;-0.79;59.51
72855;BME280;60991;51.278;22.550;2022-11-20T00:01:38;99060.53;;;-0.79;59.48
72855;BME280;60991;51.278;22.550;2022-11-20T00:03:10;99063.66;;;-0.84;59.18
72855;BME280;60991;51.278;22.550;2022-11-20T00:04:40;99067.09;;;-0.83;59.20
72855;BME280;60991;51.278;22.550;2022-11-20T00:06:15;99063.19;;;-0.87;59.74
72855;BME280;60991;51.278;22.550;2022-11-20T00:07:46;99069.38;;;-0.88;59.54
72855;BME280;60991;51.278;22.550;2022-11-20T00:09:16;99072.31;;;-0.91;59.38
72855;BME280;60991;51.278;22.550;2022-11-20T00:10:47;99074.31;;;-0.93;59.29
72855;BME280;60991;51.278;22.550;2022-11-20T00:12:17;99065.22;;;-0.97;59.65
72855;BME280;60991;51.278;22.550;2022-11-20T00:13:53;99070.75;;;-1.00;59.73
72855;BME280;60991;51.278;22.550;2022-11-20T00:15:23;99071.75;;;-1.01;59.53
72855;BME280;60991;51.278;22.550;2022-11-20T00:16:54;99068.31;;;-1.02;59.64
72855;BME280;60991;51.278;22.550;2022-11-20T00:18:25;99074.22;;;-1.08;59.72
72855;BME280;60991;51.278;22.550;2022-11-20T00:19:55;99066.41;;;-1.08;59.71
72855;BME280;60991;51.278;22.550;2022-11-20T00:21:27;99064.94;;;-1.11;60.05
72855;BME280;60991;51.278;22.550;2022-11-20T00:22:58;99066.56;;;-1.10;59.78
72855;BME280;60991;51.278;22.550;2022-11-20T00:24:28;99062.16;;;-1.09;59.87
72855;BME280;60991;51.278;22.550;2022-11-20T00:26:06;99057.31;;;-1.12;60.24
72855;BME280;60991;51.278;22.550;2022-11-20T00:27:43;99056.97;;;-1.09;60.05
72855;BME280;60991;51.278;22.550;2022-11-20T00:29:13;99046.25;;;-1.14;59.93
72855;BME280;60991;51.278;22.550;2022-11-20T00:30:43;99053.25;;;-1.15;59.57
72855;BME280;60991;51.278;22.550;2022-11-20T00:32:14;99046.94;;;-1.20;60.06
72855;BME280;60991;51.278;22.550;2022-11-20T00:33:45;99043.69;;;-1.22;60.15
72855;BME280;60991;51.278;22.550;2022-11-20T00:35:15;99039.63;;;-1.25;60.37
72855;BME280;60991;51.278;22.550;2022-11-20T00:36:45;99045.16;;;-1.28;60.54
72855;BME280;60991;51.278;22.550;2022-11-20T00:38:16;99039.38;;;-1.38;60.50
72855;BME280;60991;51.278;22.550;2022-11-20T00:39:46;99034.81;;;-1.36;60.19
72855;BME280;60991;51.278;22.550;2022-11-20T00:41:16;99034.81;;;-1.36;60.72
72855;BME280;60991;51.278;22.550;2022-11-20T00:42:46;99027.81;;;-1.35;60.53
72855;BME280;60991;51.278;22.550;2022-11-20T00:44:17;99035.63;;;-1.35;60.37
72855;BME280;60991;51.278;22.550;2022-11-20T00:45:47;99032.22;;;-1.36;60.60
72855;BME280;60991;51.278;22.550;2022-11-20T00:47:26;99034.81;;;-1.36;60.63
72855;BME280;60991;51.278;22.550;2022-11-20T00:48:59;99037.56;;;-1.37;60.44
72855;BME280;60991;51.278;22.550;2022-11-20T00:50:32;99037.91;;;-1.41;60.42
72855;BME280;60991;51.278;22.550;2022-11-20T00:52:02;99035.94;;;-1.38;60.40
72855;BME280;60991;51.278;22.550;2022-11-20T00:53:33;99032.22;;;-1.36;60.78
72855;BME280;60991;51.278;22.550;2022-11-20T00:55:03;99030.28;;;-1.42;60.36
72855;BME280;60991;51.278;22.550;2022-11-20T00:56:36;99029.63;;;-1.44;60.70
72855;BME280;60991;51.278;22.550;2022-11-20T00:58:06;99028.47;;;-1.42;60.82
72855;BME280;60991;51.278;22.550;2022-11-20T00:59:37;99026.84;;;-1.43;60.66
72855;BME280;60991;51.278;22.550;2022-11-20T01:01:18;99028.00;;;-1.45;60.87
72855;BME280;60991;51.278;22.550;2022-11-20T01:02:49;99027.66;;;-1.42;60.44
72855;BME280;60991;51.278;22.550;2022-11-20T01:04:19;99031.25;;;-1.43;60.65
72855;BME280;60991;51.278;22.550;2022-11-20T01:05:49;99030.28;;;-1.42;61.28
72855;BME280;60991;51.278;22.550;2022-11-20T01:07:20;99024.25;;;-1.43;60.81
72855;BME280;60991;51.278;22.550;2022-11-20T01:08:52;99025.06;;;-1.42;60.67
72855;BME280;60991;51.278;22.550;2022-11-20T01:10:22;99021.66;;;-1.43;60.65
72855;BME280;60991;51.278;22.550;2022-11-20T01:11:52;99031.91;;;-1.41;60.99
72855;BME280;60991;51.278;22.550;2022-11-20T01:13:23;99023.91;;;-1.40;61.04
72855;BME280;60991;51.278;22.550;2022-11-20T01:14:53;99025.84;;;-1.33;60.92
72855;BME280;60991;51.278;22.550;2022-11-20T01:16:28;99024.06;;;-1.33;60.82
72855;BME280;60991;51.278;22.550;2022-11-20T01:17:59;99030.34;;;-1.27;61.03
72855;BME280;60991;51.278;22.550;2022-11-20T01:19:29;99027.09;;;-1.21;60.60
72855;BME280;60991;51.278;22.550;2022-11-20T01:21:02;99028.03;;;-1.14;60.40
72855;BME280;60991;51.278;22.550;2022-11-20T01:22:32;99025.06;;;-1.11;60.22
72855;BME280;60991;51.278;22.550;2022-11-20T01:24:04;99019.06;;;-1.12;60.60
72855;BME280;60991;51.278;22.550;2022-11-20T01:25:35;99027.88;;;-1.13;60.56
72855;BME280;60991;51.278;22.550;2022-11-20T01:27:05;99025.69;;;-1.09;60.29
72855;BME280;60991;51.278;22.550;2022-11-20T01:28:36;99023.22;;;-1.02;60.20
72855;BME280;60991;51.278;22.550;2022-11-20T01:30:07;99016.25;;;-1.10;60.46
72855;BME280;60991;51.278;22.550;2022-11-20T01:31:38;99021.47;;;-1.10;60.52
72855;BME280;60991;51.278;22.550;2022-11-20T01:33:08;99015.72;;;-0.97;60.18
72855;BME280;60991;51.278;22.550;2022-11-20T01:34:38;99008.00;;;-0.91;59.75
72855;BME280;60991;51.278;22.550;2022-11-20T01:36:12;99002.28;;;-0.86;59.62
72855;BME280;60991;51.278;22.550;2022-11-20T01:37:42;99005.00;;;-0.80;59.82
72855;BME280;60991;51.278;22.550;2022-11-20T01:39:16;98989.22;;;-0.78;59.82
72855;BME280;60991;51.278;22.550;2022-11-20T01:40:54;98990.47;;;-0.74;59.62
72855;BME280;60991;51.278;22.550;2022-11-20T01:42:25;98997.13;;;-0.72;59.93
72855;BME280;60991;51.278;22.550;2022-11-20T01:43:58;98996.78;;;-0.68;59.66
72855;BME280;60991;51.278;22.550;2022-11-20T01:47:43;99001.66;;;-0.65;59.64
72855;BME280;60991;51.278;22.550;2022-11-20T01:49:20;98993.66;;;-0.64;59.60
72855;BME280;60991;51.278;22.550;2022-11-20T01:50:52;98991.84;;;-0.63;59.70
72855;BME280;60991;51.278;22.550;2022-11-20T01:52:45;98994.63;;;-0.65;60.08
72855;BME280;60991;51.278;22.550;2022-11-20T01:54:20;98992.31;;;-0.60;59.75
72855;BME280;60991;51.278;22.550;2022-11-20T01:55:55;98989.72;;;-0.60;59.87
72855;BME280;60991;51.278;22.550;2022-11-20T01:57:29;98985.50;;;-0.61;60.06
72855;BME280;60991;51.278;22.550;2022-11-20T01:59:01;98989.53;;;-0.58;60.04
72855;BME280;60991;51.278;22.550;2022-11-20T02:00:33;98983.34;;;-0.57;60.20
72855;BME280;60991;51.278;22.550;2022-11-20T02:02:04;98985.16;;;-0.58;60.13
72855;BME280;60991;51.278;22.550;2022-11-20T02:03:34;98987.38;;;-0.55;59.99
72855;BME280;60991;51.278;22.550;2022-11-20T02:06:59;98983.25;;;-0.49;60.03
72855;BME280;60991;51.278;22.550;2022-11-20T02:08:31;98987.78;;;-0.43;60.21
72855;BME280;60991;51.278;22.550;2022-11-20T02:10:02;98987.13;;;-0.45;60.19
72855;BME280;60991;51.278;22.550;2022-11-20T02:11:32;98976.88;;;-0.47;60.54
72855;BME280;60991;51.278;22.550;2022-11-20T02:13:02;98975.44;;;-0.49;60.38
72855;BME280;60991;51.278;22.550;2022-11-20T02:14:33;98981.34;;;-0.55;60.63
72855;BME280;60991;51.278;22.550;2022-11-20T02:16:03;98976.59;;;-0.52;60.24
72855;BME280;60991;51.278;22.550;2022-11-20T02:17:35;98991.25;;;-0.51;60.47
72855;BME280;60991;51.278;22.550;2022-11-20T02:19:23;98992.59;;;-0.55;60.81
72855;BME280;60991;51.278;22.550;2022-11-20T02:21:15;98985.69;;;-0.48;60.65
72855;BME280;60991;51.278;22.550;2022-11-20T02:24:23;99000.19;;;-0.45;60.82
72855;BME280;60991;51.278;22.550;2022-11-20T02:25:55;98995.94;;;-0.46;60.95
72855;BME280;60991;51.278;22.550;2022-11-20T02:27:27;99002.63;;;-0.44;60.92
72855;BME280;60991;51.278;22.550;2022-11-20T02:29:00;99000.19;;;-0.45;60.97
72855;BME280;60991;51.278;22.550;2022-11-20T02:30:32;98993.81;;;-0.43;60.75
72855;BME280;60991;51.278;22.550;2022-11-20T02:32:02;98991.66;;;-0.39;60.94
72855;BME280;60991;51.278;22.550;2022-11-20T02:33:33;98988.25;;;-0.40;61.08
72855;BME280;60991;51.278;22.550;2022-11-20T02:36:49;98990.28;;;-0.35;61.07
72855;BME280;60991;51.278;22.550;2022-11-20T02:38:22;98987.06;;;-0.37;61.31
72855;BME280;60991;51.278;22.550;2022-11-20T02:39:52;98989.47;;;-0.36;61.21
72855;BME280;60991;51.278;22.550;2022-11-20T02:41:31;98982.47;;;-0.35;61.43
72855;BME280;60991;51.278;22.550;2022-11-20T02:43:01;98983.75;;;-0.31;61.66
72855;BME280;60991;51.278;22.550;2022-11-20T02:44:31;98977.53;;;-0.30;61.55
72855;BME280;60991;51.278;22.550;2022-11-20T02:46:02;98981.94;;;-0.45;61.81
72855;BME280;60991;51.278;22.550;2022-11-20T02:47:32;98976.81;;;-0.39;61.91
72855;BME280;60991;51.278;22.550;2022-11-20T02:49:03;98981.84;;;-0.37;61.88
72855;BME280;60991;51.278;22.550;2022-11-20T02:50:36;98982.47;;;-0.35;61.75
72855;BME280;60991;51.278;22.550;2022-11-20T02:52:07;98979.59;;;-0.40;61.88
72855;BME280;60991;51.278;22.550;2022-11-20T02:53:37;98990.13;;;-0.33;61.59
72855;BME280;60991;51.278;22.550;2022-11-20T02:55:08;98981.50;;;-0.34;62.07
72855;BME280;60991;51.278;22.550;2022-11-20T02:56:39;98982.13;;;-0.32;61.96
72855;BME280;60991;51.278;22.550;2022-11-20T02:58:09;98976.38;;;-0.27;62.02
72855;BME280;60991;51.278;22.550;2022-11-20T02:59:39;98974.13;;;-0.30;62.25
72855;BME280;60991;51.278;22.550;2022-11-20T03:01:10;98972.63;;;-0.25;61.74
72855;BME280;60991;51.278;22.550;2022-11-20T03:02:40;98975.69;;;-0.21;61.65
72855;BME280;60991;51.278;22.550;2022-11-20T03:04:10;98967.47;;;-0.18;61.93
72855;BME280;60991;51.278;22.550;2022-11-20T03:05:40;98976.91;;;-0.17;61.87
72855;BME280;60991;51.278;22.550;2022-11-20T03:07:11;98980.97;;;-0.15;61.86
72855;BME280;60991;51.278;22.550;2022-11-20T03:08:41;98979.81;;;-0.12;61.58
72855;BME280;60991;51.278;22.550;2022-11-20T03:10:12;98974.25;;;-0.09;61.61
72855;BME280;60991;51.278;22.550;2022-11-20T03:11:42;98978.28;;;-0.07;61.68
72855;BME280;60991;51.278;22.550;2022-11-20T03:13:12;98981.53;;;-0.05;61.92
72855;BME280;60991;51.278;22.550;2022-11-20T03:14:45;98987.22;;;-0.01;61.74
72855;BME280;60991;51.278;22.550;2022-11-20T03:16:18;98991.25;;;0.02;61.90
72855;BME280;60991;51.278;22.550;2022-11-20T03:17:48;98991.88;;;0.04;61.60
72855;BME280;60991;51.278;22.550;2022-11-20T03:19:19;98994.94;;;0.07;61.83
72855;BME280;60991;51.278;22.550;2022-11-20T03:20:49;98988.56;;;0.10;61.91
72855;BME280;60991;51.278;22.550;2022-11-20T03:22:19;98981.34;;;0.12;61.63
72855;BME280;60991;51.278;22.550;2022-11-20T03:23:49;98976.94;;;0.12;61.78
72855;BME280;60991;51.278;22.550;2022-11-20T03:25:23;98985.75;;;0.11;61.45
72855;BME280;60991;51.278;22.550;2022-11-20T03:26:53;98977.31;;;0.09;61.52
72855;BME280;60991;51.278;22.550;2022-11-20T03:28:23;98982.16;;;0.12;61.52
72855;BME280;60991;51.278;22.550;2022-11-20T03:29:53;98971.91;;;0.11;61.37
72855;BME280;60991;51.278;22.550;2022-11-20T03:31:32;98966.41;;;0.06;61.59
72855;BME280;60991;51.278;22.550;2022-11-20T03:33:03;98976.13;;;0.12;61.82
72855;BME280;60991;51.278;22.550;2022-11-20T03:34:33;98976.59;;;0.15;61.46
72855;BME280;60991;51.278;22.550;2022-11-20T03:36:05;98967.31;;;0.13;61.71
72855;BME280;60991;51.278;22.550;2022-11-20T03:37:37;98970.22;;;0.18;61.86
72855;BME280;60991;51.278;22.550;2022-11-20T03:39:07;98966.78;;;0.17;61.64
72855;BME280;60991;51.278;22.550;2022-11-20T03:40:38;98972.44;;;0.21;61.73
72855;BME280;60991;51.278;22.550;2022-11-20T03:42:09;98962.44;;;0.24;61.58
72855;BME280;60991;51.278;22.550;2022-11-20T03:43:39;98961.44;;;0.25;61.57
72855;BME280;60991;51.278;22.550;2022-11-20T03:45:10;98962.09;;;0.27;61.17
72855;BME280;60991;51.278;22.550;2022-11-20T03:46:41;98958.50;;;0.28;61.21
72855;BME280;60991;51.278;22.550;2022-11-20T03:48:11;98965.50;;;0.28;61.74
72855;BME280;60991;51.278;22.550;2022-11-20T03:49:41;98957.69;;;0.28;61.29
72855;BME280;60991;51.278;22.550;2022-11-20T03:51:22;98954.88;;;0.29;61.29
72855;BME280;60991;51.278;22.550;2022-11-20T03:52:53;98955.78;;;0.37;61.55
72855;BME280;60991;51.278;22.550;2022-11-20T03:54:23;98961.81;;;0.37;60.94
72855;BME280;60991;51.278;22.550;2022-11-20T03:55:53;98954.00;;;0.37;61.58
72855;BME280;60991;51.278;22.550;2022-11-20T03:57:23;98956.38;;;0.39;61.40
72855;BME280;60991;51.278;22.550;2022-11-20T03:58:54;98962.59;;;0.38;61.15
72855;BME280;60991;51.278;22.550;2022-11-20T04:00:24;98959.00;;;0.39;61.65
72855;BME280;60991;51.278;22.550;2022-11-20T04:01:54;98956.38;;;0.39;61.59
72855;BME280;60991;51.278;22.550;2022-11-20T04:03:25;98961.44;;;0.40;61.16
72855;BME280;60991;51.278;22.550;2022-11-20T04:04:55;98952.59;;;0.41;61.71
72855;BME280;60991;51.278;22.550;2022-11-20T04:06:27;98955.41;;;0.40;61.25
72855;BME280;60991;51.278;22.550;2022-11-20T04:07:58;98950.19;;;0.40;61.77
72855;BME280;60991;51.278;22.550;2022-11-20T04:09:28;98952.97;;;0.38;61.58
72855;BME280;60991;51.278;22.550;2022-11-20T04:12:41;98951.63;;;0.42;61.58
72855;BME280;60991;51.278;22.550;2022-11-20T04:14:13;98953.78;;;0.39;61.27
72855;BME280;60991;51.278;22.550;2022-11-20T04:15:44;98950.19;;;0.40;61.84
72855;BME280;60991;51.278;22.550;2022-11-20T04:17:14;98945.75;;;0.40;61.56
72855;BME280;60991;51.278;22.550;2022-11-20T04:18:45;98944.16;;;0.39;61.68
72855;BME280;60991;51.278;22.550;2022-11-20T04:20:15;98949.38;;;0.39;61.96
72855;BME280;60991;51.278;22.550;2022-11-20T04:21:45;98950.19;;;0.40;61.48
72855;BME280;60991;51.278;22.550;2022-11-20T04:23:16;98940.53;;;0.40;61.95
72855;BME280;60991;51.278;22.550;2022-11-20T04:24:46;98944.16;;;0.39;61.92
72855;BME280;60991;51.278;22.550;2022-11-20T04:26:19;98943.34;;;0.39;61.92
72855;BME280;60991;51.278;22.550;2022-11-20T04:27:49;98938.75;;;0.41;61.58
72855;BME280;60991;51.278;22.550;2022-11-20T04:29:20;98934.34;;;0.41;61.46
72855;BME280;60991;51.278;22.550;2022-11-20T04:30:50;98936.13;;;0.41;61.49
72855;BME280;60991;51.278;22.550;2022-11-20T04:32:20;98930.91;;;0.41;61.92
72855;BME280;60991;51.278;22.550;2022-11-20T04:33:50;98929.09;;;0.41;61.77
72855;BME280;60991;51.278;22.550;2022-11-20T04:35:24;98924.81;;;0.33;61.68
72855;BME280;60991;51.278;22.550;2022-11-20T04:36:54;98921.22;;;0.34;61.60
72855;BME280;60991;51.278;22.550;2022-11-20T04:38:25;98918.44;;;0.36;62.07
72855;BME280;60991;51.278;22.550;2022-11-20T04:39:55;98921.84;;;0.37;61.84
72855;BME280;60991;51.278;22.550;2022-11-20T04:41:28;98922.03;;;0.35;61.65
72855;BME280;60991;51.278;22.550;2022-11-20T04:42:58;98916.63;;;0.37;61.75
72855;BME280;60991;51.278;22.550;2022-11-20T04:44:29;98928.06;;;0.36;62.01
72855;BME280;60991;51.278;22.550;2022-11-20T04:46:00;98908.97;;;0.35;61.72
72855;BME280;60991;51.278;22.550;2022-11-20T04:47:30;98915.81;;;0.36;61.89
72855;BME280;60991;51.278;22.550;2022-11-20T04:49:01;98908.00;;;0.36;62.04
72855;BME280;60991;51.278;22.550;2022-11-20T04:50:31;98907.00;;;0.37;61.96
72855;BME280;60991;51.278;22.550;2022-11-20T04:52:01;98907.78;;;0.38;61.82
72855;BME280;60991;51.278;22.550;2022-11-20T04:53:32;98913.00;;;0.38;61.91
72855;BME280;60991;51.278;22.550;2022-11-20T04:55:02;98904.38;;;0.37;61.63
72855;BME280;60991;51.278;22.550;2022-11-20T04:56:33;98897.53;;;0.36;61.57
72855;BME280;60991;51.278;22.550;2022-11-20T04:58:03;98908.78;;;0.37;61.72
72855;BME280;60991;51.278;22.550;2022-11-20T04:59:33;98904.56;;;0.36;61.75
72855;BME280;60991;51.278;22.550;2022-11-20T05:01:10;98908.25;;;0.26;62.34
72855;BME280;60991;51.278;22.550;2022-11-20T05:02:40;98908.72;;;0.30;62.04
72855;BME280;60991;51.278;22.550;2022-11-20T05:04:10;98910.69;;;0.28;61.76
72855;BME280;60991;51.278;22.550;2022-11-20T05:05:40;98907.19;;;0.21;62.15
72855;BME280;60991;51.278;22.550;2022-11-20T05:07:11;98907.81;;;0.23;62.52
72855;BME280;60991;51.278;22.550;2022-11-20T05:08:41;98896.56;;;0.22;62.33
72855;BME280;60991;51.278;22.550;2022-11-20T05:10:12;98904.97;;;0.18;62.33
72855;BME280;60991;51.278;22.550;2022-11-20T05:11:42;98897.50;;;0.15;62.55
72855;BME280;60991;51.278;22.550;2022-11-20T05:13:12;98903.53;;;0.15;62.20
72855;BME280;60991;51.278;22.550;2022-11-20T05:14:42;98907.56;;;0.18;62.04
72855;BME280;60991;51.278;22.550;2022-11-20T05:16:17;98901.09;;;0.14;62.46
72855;BME280;60991;51.278;22.550;2022-11-20T05:17:49;98899.19;;;0.08;62.57
72855;BME280;60991;51.278;22.550;2022-11-20T05:19:20;98900.38;;;0.05;62.40
72855;BME280;60991;51.278;22.550;2022-11-20T05:20:55;98905.94;;;0.02;62.99
72855;BME280;60991;51.278;22.550;2022-11-20T05:22:25;98906.94;;;0.01;62.67
72855;BME280;60991;51.278;22.550;2022-11-20T05:23:55;98898.22;;;-0.06;62.79
72855;BME280;60991;51.278;22.550;2022-11-20T05:25:25;98891.22;;;-0.06;62.73
72855;BME280;60991;51.278;22.550;2022-11-20T05:26:56;98898.41;;;-0.08;62.76
72855;BME280;60991;51.278;22.550;2022-11-20T05:28:27;98897.25;;;-0.05;62.81
72855;BME280;60991;51.278;22.550;2022-11-20T05:29:58;98901.03;;;-0.08;62.98
72855;BME280;60991;51.278;22.550;2022-11-20T05:31:28;98894.81;;;-0.07;62.96
72855;BME280;60991;51.278;22.550;2022-11-20T05:32:58;98894.72;;;-0.13;62.59
72855;BME280;60991;51.278;22.550;2022-11-20T05:34:29;98891.56;;;-0.09;62.75
72855;BME280;60991;51.278;22.550;2022-11-20T05:35:59;98888.78;;;-0.07;62.79
72855;BME280;60991;51.278;22.550;2022-11-20T05:37:29;98883.75;;;-0.09;63.07
72855;BME280;60991;51.278;22.550;2022-11-20T05:38:59;98885.09;;;-0.13;62.72
72855;BME280;60991;51.278;22.550;2022-11-20T05:40:30;98882.31;;;-0.11;62.59
72855;BME280;60991;51.278;22.550;2022-11-20T05:42:00;98880.69;;;-0.12;63.05
72855;BME280;60991;51.278;22.550;2022-11-20T05:43:37;98882.47;;;-0.13;62.84
72855;BME280;60991;51.278;22.550;2022-11-20T05:45:08;98885.91;;;-0.12;62.79
72855;BME280;60991;51.278;22.550;2022-11-20T05:46:38;98879.88;;;-0.13;62.59
72855;BME280;60991;51.278;22.550;2022-11-20T05:48:09;98877.25;;;-0.13;62.84
72855;BME280;60991;51.278;22.550;2022-11-20T05:49:39;98887.88;;;-0.14;63.01
72855;BME280;60991;51.278;22.550;2022-11-20T05:51:11;98889.44;;;-0.20;62.70
72855;BME280;60991;51.278;22.550;2022-11-20T05:52:42;98881.16;;;-0.23;63.14
72855;BME280;60991;51.278;22.550;2022-11-20T05:54:12;98884.41;;;-0.21;63.01
72855;BME280;60991;51.278;22.550;2022-11-20T05:55:42;98888.00;;;-0.22;62.96
72855;BME280;60991;51.278;22.550;2022-11-20T05:57:13;98889.97;;;-0.24;62.99
72855;BME280;60991;51.278;22.550;2022-11-20T05:58:43;98898.78;;;-0.25;63.23
72855;BME280;60991;51.278;22.550;2022-11-20T06:00:14;98897.69;;;-0.31;63.05
72855;BME280;60991;51.278;22.550;2022-11-20T06:01:44;98901.63;;;-0.35;63.32
72855;BME280;60991;51.278;22.550;2022-11-20T06:03:14;98905.22;;;-0.36;63.48
72855;BME280;60991;51.278;22.550;2022-11-20T06:04:44;98914.03;;;-0.37;63.09
72855;BME280;60991;51.278;22.550;2022-11-20T06:06:15;98909.47;;;-0.35;63.08
72855;BME280;60991;51.278;22.550;2022-11-20T06:07:46;98915.88;;;-0.38;63.04
72855;BME280;60991;51.278;22.550;2022-11-20T06:09:16;98915.41;;;-0.41;63.40
72855;BME280;60991;51.278;22.550;2022-11-20T06:10:46;98914.44;;;-0.40;63.12
72855;BME280;60991;51.278;22.550;2022-11-20T06:12:16;98915.59;;;-0.43;63.42
72855;BME280;60991;51.278;22.550;2022-11-20T06:13:47;98910.53;;;-0.44;63.49
72855;BME280;60991;51.278;22.550;2022-11-20T06:15:17;98913.22;;;-0.52;63.63
72855;BME280;60991;51.278;22.550;2022-11-20T06:16:47;98914.31;;;-0.47;63.48
72855;BME280;60991;51.278;22.550;2022-11-20T06:18:18;98914.13;;;-0.45;63.75
72855;BME280;60991;51.278;22.550;2022-11-20T06:19:48;98914.13;;;-0.45;63.61
72855;BME280;60991;51.278;22.550;2022-11-20T06:21:21;98907.13;;;-0.59;63.93
72855;BME280;60991;51.278;22.550;2022-11-20T06:22:51;98905.50;;;-0.60;63.95
72855;BME280;60991;51.278;22.550;2022-11-20T06:24:21;98905.09;;;-0.72;64.11
72855;BME280;60991;51.278;22.550;2022-11-20T06:25:52;98903.59;;;-0.66;64.41
72855;BME280;60991;51.278;22.550;2022-11-20T06:27:24;98899.81;;;-0.64;64.24
72855;BME280;60991;51.278;22.550;2022-11-20T06:28:55;98907.47;;;-0.62;64.15
72855;BME280;60991;51.278;22.550;2022-11-20T06:30:25;98905.31;;;-0.59;64.00
72855;BME280;60991;51.278;22.550;2022-11-20T06:31:55;98892.28;;;-0.59;64.03
72855;BME280;60991;51.278;22.550;2022-11-20T06:33:26;98889.22;;;-0.62;63.80
72855;BME280;60991;51.278;22.550;2022-11-20T06:34:56;98888.59;;;-0.64;64.28
72855;BME280;60991;51.278;22.550;2022-11-20T06:36:26;98883.19;;;-0.63;64.17
72855;BME280;60991;51.278;22.550;2022-11-20T06:37:56;98889.22;;;-0.62;64.16
72855;BME280;60991;51.278;22.550;2022-11-20T06:39:27;98888.06;;;-0.60;64.16
72855;BME280;60991;51.278;22.550;2022-11-20T06:40:59;98894.09;;;-0.59;64.04
72855;BME280;60991;51.278;22.550;2022-11-20T06:42:29;98900.09;;;-0.59;64.15
72855;BME280;60991;51.278;22.550;2022-11-20T06:43:59;98900.75;;;-0.57;63.90
72855;BME280;60991;51.278;22.550;2022-11-20T06:45:29;98904.69;;;-0.61;64.20
72855;BME280;60991;51.278;22.550;2022-11-20T06:47:00;98906.31;;;-0.60;64.43
72855;BME280;60991;51.278;22.550;2022-11-20T06:48:30;98904.88;;;-0.62;64.25
72855;BME280;60991;51.278;22.550;2022-11-20T06:50:00;98909.56;;;-0.58;64.15
72855;BME280;60991;51.278;22.550;2022-11-20T06:51:31;98910.19;;;-0.56;64.16
72855;BME280;60991;51.278;22.550;2022-11-20T06:53:02;98908.28;;;-0.62;64.53
72855;BME280;60991;51.278;22.550;2022-11-20T06:54:32;98901.56;;;-0.56;64.53
72855;BME280;60991;51.278;22.550;2022-11-20T06:56:03;98908.66;;;-0.50;64.27
72855;BME280;60991;51.278;22.550;2022-11-20T06:57:33;98903.25;;;-0.49;64.07
72855;BME280;60991;51.278;22.550;2022-11-20T06:59:05;98903.88;;;-0.47;64.12
72855;BME280;60991;51.278;22.550;2022-11-20T07:00:35;98908.56;;;-0.42;64.25
72855;BME280;60991;51.278;22.550;2022-11-20T07:02:09;98911.81;;;-0.40;64.15
72855;BME280;60991;51.278;22.550;2022-11-20T07:03:40;98916.22;;;-0.41;63.85
72855;BME280;60991;51.278;22.550;2022-11-20T07:05:11;98903.00;;;-0.39;64.02
72855;BME280;60991;51.278;22.550;2022-11-20T07:06:41;98907.03;;;-0.37;64.30
72855;BME280;60991;51.278;22.550;2022-11-20T07:08:11;98908.47;;;-0.34;63.92
72855;BME280;60991;51.278;22.550;2022-11-20T07:09:42;98902.72;;;-0.29;64.04
72855;BME280;60991;51.278;22.550;2022-11-20T07:11:12;98892.13;;;-0.28;64.20
72855;BME280;60991;51.278;22.550;2022-11-20T07:12:49;98890.41;;;-0.36;64.24
72855;BME280;60991;51.278;22.550;2022-11-20T07:14:19;98882.84;;;-0.30;64.21
72855;BME280;60991;51.278;22.550;2022-11-20T07:15:49;98888.34;;;-0.25;64.15
72855;BME280;60991;51.278;22.550;2022-11-20T07:17:20;98886.53;;;-0.25;64.15
72855;BME280;60991;51.278;22.550;2022-11-20T07:18:50;98889.97;;;-0.24;64.14
72855;BME280;60991;51.278;22.550;2022-11-20T07:20:20;98894.66;;;-0.20;63.92
72855;BME280;60991;51.278;22.550;2022-11-20T07:21:51;98905.91;;;-0.19;64.07
72855;BME280;60991;51.278;22.550;2022-11-20T07:23:21;98893.81;;;-0.35;64.35
72855;BME280;60991;51.278;22.550;2022-11-20T07:24:51;98891.13;;;-0.27;64.18
72855;BME280;60991;51.278;22.550;2022-11-20T07:26:25;98879.53;;;-0.24;64.18
72855;BME280;60991;51.278;22.550;2022-11-20T07:27:58;98882.41;;;-0.19;64.19
72855;BME280;60991;51.278;22.550;2022-11-20T07:29:29;98883.22;;;-0.19;64.25
72855;BME280;60991;51.278;22.550;2022-11-20T07:30:59;98886.09;;;-0.14;64.16
72855;BME280;60991;51.278;22.550;2022-11-20T07:32:30;98891.06;;;-0.19;64.02
72855;BME280;60991;51.278;22.550;2022-11-20T07:34:00;98880.53;;;-0.25;64.66
72855;BME280;60991;51.278;22.550;2022-11-20T07:35:30;98875.41;;;-0.19;64.83
72855;BME280;60991;51.278;22.550;2022-11-20T07:37:00;98869.81;;;-0.16;64.99
72855;BME280;60991;51.278;22.550;2022-11-20T07:38:31;98863.69;;;-0.08;64.04
72855;BME280;60991;51.278;22.550;2022-11-20T07:40:01;98866.56;;;-0.03;64.59
72855;BME280;60991;51.278;22.550;2022-11-20T07:41:32;98864.78;;;-0.03;64.42
72855;BME280;60991;51.278;22.550;2022-11-20T07:43:02;98866.63;;;0.04;64.84
72855;BME280;60991;51.278;22.550;2022-11-20T07:44:32;98858.44;;;0.07;64.56
72855;BME280;60991;51.278;22.550;2022-11-20T07:46:03;98861.22;;;0.05;64.88
72855;BME280;60991;51.278;22.550;2022-11-20T07:47:36;98860.06;;;0.08;64.71
72855;BME280;60991;51.278;22.550;2022-11-20T07:49:06;98865.00;;;0.03;64.95
72855;BME280;60991;51.278;22.550;2022-11-20T07:50:36;98860.19;;;-0.01;65.22
72855;BME280;60991;51.278;22.550;2022-11-20T07:52:07;98863.47;;;0.08;65.47
72855;BME280;60991;51.278;22.550;2022-11-20T07:53:37;98857.91;;;0.11;65.09
72855;BME280;60991;51.278;22.550;2022-11-20T07:55:09;98853.47;;;-0.24;66.49
72855;BME280;60991;51.278;22.550;2022-11-20T07:56:39;98854.78;;;-0.14;66.05
72855;BME280;60991;51.278;22.550;2022-11-20T07:58:09;98858.03;;;-0.12;66.48
72855;BME280;60991;51.278;22.550;2022-11-20T07:59:40;98860.38;;;-0.02;66.42
72855;BME280;60991;51.278;22.550;2022-11-20T08:01:10;98859.25;;;0.07;65.84
72855;BME280;60991;51.278;22.550;2022-11-20T08:02:40;98861.31;;;0.12;66.42
72855;BME280;60991;51.278;22.550;2022-11-20T08:04:11;98858.00;;;0.18;65.96
72855;BME280;60991;51.278;22.550;2022-11-20T08:05:41;98854.00;;;0.22;65.95
72855;BME280;60991;51.278;22.550;2022-11-20T08:07:11;98859.56;;;-0.03;67.22